Sakarya, Turkey
Current Conditions -  °F | °C
As of 1:50 PM on Saturday 25 Oct 2014 (Local Time) from LTBQ Reporting Station
Broken Clouds Broken Clouds  
Wind Chill: 19°   Ceiling: 8000
Heat Index: 19°   Visibility: 5mi
Dew Point: 17°   Wind: 5mph
Humidity: 88%   Direction: NA
Pressure: 29.88"   Gusts: NA
Location:  40.75°N, 30.45°E
Report Text: LTBQ 251050Z VRB04KT 8000 FEW008 SCT030 BKN080 19/17 Q1012 RESHRA NOSIG
Loading
Personal Weather Stations






























Interactive Weather Map
Tropical Storm Tracking
New forecast layout! Learn more

10-Day Weather Forecast

Advertisements
Track Severe Weather on mobile